createdAt,value
2017-09-22T00:00:26.374Z,6.77
2017-09-22T00:02:53.887Z,7.02
2017-09-22T00:05:21.388Z,7.13
2017-09-22T00:07:48.918Z,6.81
2017-09-22T00:10:16.414Z,6.50
2017-09-22T00:12:43.923Z,6.39
2017-09-22T00:15:11.455Z,6.45
2017-09-22T00:17:38.966Z,6.71
2017-09-22T00:20:06.489Z,6.93
2017-09-22T00:22:33.991Z,6.68
2017-09-22T00:25:01.501Z,6.84
2017-09-22T00:27:29.005Z,6.84
2017-09-22T00:29:56.523Z,6.62
2017-09-22T00:32:24.018Z,6.33
2017-09-22T00:34:51.532Z,6.50
2017-09-22T00:37:19.041Z,6.43
2017-09-22T00:39:46.548Z,6.71
2017-09-22T00:42:14.065Z,6.60
2017-09-22T00:44:41.593Z,6.41
2017-09-22T00:47:09.108Z,5.96
2017-09-22T00:49:36.625Z,6.14
2017-09-22T00:52:04.151Z,6.03
2017-09-22T00:54:31.655Z,5.84
2017-09-22T00:56:59.172Z,5.88
2017-09-22T00:59:26.685Z,6.08
2017-09-22T01:01:54.196Z,6.08
2017-09-22T01:04:21.701Z,6.16
2017-09-22T01:06:49.215Z,6.33
2017-09-22T01:09:16.716Z,6.12
2017-09-22T01:11:44.215Z,5.98
2017-09-22T01:14:11.719Z,6.24
2017-09-22T01:16:39.219Z,6.41
2017-09-22T01:19:06.722Z,6.28
2017-09-22T01:21:34.230Z,5.96
2017-09-22T01:24:01.757Z,6.04
2017-09-22T01:26:29.257Z,6.03
2017-09-22T01:28:57.262Z,6.23
2017-09-22T01:31:24.770Z,5.79
2017-09-22T01:33:52.270Z,5.61
2017-09-22T01:36:20.580Z,5.50
2017-09-22T01:38:48.076Z,5.48
2017-09-22T01:41:15.588Z,5.50
2017-09-22T01:43:43.102Z,5.52
2017-09-22T01:46:10.606Z,5.65
2017-09-22T01:48:38.125Z,6.06
2017-09-22T01:51:05.624Z,5.73
2017-09-22T01:53:33.133Z,5.73
2017-09-22T01:56:00.638Z,5.48
2017-09-22T01:58:28.129Z,5.31
2017-09-22T02:00:55.655Z,5.57
2017-09-22T02:03:23.176Z,5.42
2017-09-22T02:05:50.674Z,5.42
2017-09-22T02:08:18.174Z,5.31
2017-09-22T02:10:45.681Z,5.43
2017-09-22T02:13:13.187Z,5.79
2017-09-22T02:15:40.686Z,5.56
2017-09-22T02:18:08.188Z,5.50
2017-09-22T02:20:35.717Z,5.48
2017-09-22T02:23:03.276Z,5.29
2017-09-22T02:25:30.836Z,5.18
2017-09-22T02:27:58.341Z,5.07
2017-09-22T02:30:25.844Z,5.08
2017-09-22T02:32:53.367Z,5.01
2017-09-22T02:35:20.890Z,4.98
2017-09-22T02:37:48.404Z,5.07
2017-09-22T02:40:15.915Z,5.16
2017-09-22T02:42:43.428Z,5.21
2017-09-22T02:45:10.963Z,5.30
2017-09-22T02:47:38.473Z,5.45
2017-09-22T02:50:05.975Z,5.25
2017-09-22T02:52:33.488Z,4.98
2017-09-22T02:55:01.009Z,4.82
2017-09-22T02:57:28.510Z,4.88
2017-09-22T02:59:56.007Z,4.91
2017-09-22T03:02:23.519Z,4.90
2017-09-22T03:04:51.020Z,4.90
2017-09-22T03:07:18.535Z,4.81
2017-09-22T03:09:46.057Z,4.98
2017-09-22T03:12:13.556Z,4.96
2017-09-22T03:14:41.056Z,4.87
2017-09-22T03:17:08.550Z,4.98
2017-09-22T03:19:36.062Z,5.03
2017-09-22T03:22:03.569Z,5.43
2017-09-22T03:24:31.721Z,5.19
2017-09-22T03:26:59.223Z,4.96
2017-09-22T03:29:26.743Z,4.87
2017-09-22T03:31:54.245Z,4.69
2017-09-22T03:34:21.738Z,4.72
2017-09-22T03:36:49.264Z,4.54
2017-09-22T03:39:16.771Z,4.53
2017-09-22T03:41:44.287Z,4.87
2017-09-22T03:44:11.782Z,4.76
2017-09-22T03:46:39.291Z,4.74
2017-09-22T03:49:06.812Z,4.78
2017-09-22T03:51:34.322Z,4.65
2017-09-22T03:54:01.832Z,4.59
2017-09-22T03:56:29.335Z,4.49
2017-09-22T03:58:56.863Z,4.49
2017-09-22T04:01:24.363Z,4.45
2017-09-22T04:03:51.871Z,4.49
2017-09-22T04:06:19.375Z,4.40
2017-09-22T04:08:46.874Z,4.45
2017-09-22T04:11:14.379Z,4.68
2017-09-22T04:13:41.899Z,4.91
2017-09-22T04:16:09.418Z,4.80
2017-09-22T04:18:36.923Z,4.55
2017-09-22T04:21:04.444Z,4.47
2017-09-22T04:23:31.972Z,4.67
2017-09-22T04:25:59.467Z,4.73
2017-09-22T04:28:26.975Z,4.69
2017-09-22T04:30:54.518Z,5.02
2017-09-22T04:33:22.045Z,4.80
2017-09-22T04:35:49.571Z,4.60
2017-09-22T04:38:17.097Z,4.51
2017-09-22T04:40:45.544Z,4.57
2017-09-22T04:43:13.642Z,4.54
2017-09-22T04:45:41.160Z,4.46
2017-09-22T04:48:08.678Z,4.32
2017-09-22T04:50:36.178Z,4.30
2017-09-22T04:53:03.703Z,4.17
2017-09-22T04:55:31.222Z,4.15
2017-09-22T04:57:58.891Z,4.14
2017-09-22T05:00:26.408Z,4.32
2017-09-22T05:02:53.931Z,4.14
2017-09-22T05:05:21.444Z,4.05
2017-09-22T05:07:48.959Z,4.05
2017-09-22T05:10:16.482Z,4.05
2017-09-22T05:12:43.994Z,4.02
2017-09-22T05:15:11.491Z,4.13
2017-09-22T05:17:39.017Z,4.11
2017-09-22T05:20:06.519Z,4.18
2017-09-22T05:22:34.037Z,4.12
2017-09-22T05:25:01.536Z,4.15
2017-09-22T05:27:29.043Z,4.11
2017-09-22T05:29:56.588Z,4.04
2017-09-22T05:32:24.119Z,4.13
2017-09-22T05:34:51.636Z,4.28
2017-09-22T05:37:19.138Z,4.56
2017-09-22T05:39:46.667Z,4.77
2017-09-22T05:42:14.172Z,4.90
2017-09-22T05:44:41.815Z,4.94
2017-09-22T05:47:09.353Z,5.07
2017-09-22T05:49:36.867Z,5.00
2017-09-22T05:52:04.382Z,5.09
2017-09-22T05:54:31.883Z,5.07
2017-09-22T05:56:59.433Z,5.14
2017-09-22T05:59:26.944Z,5.26
2017-09-22T06:01:54.463Z,5.23
2017-09-22T06:04:21.984Z,5.33
2017-09-22T06:06:49.593Z,5.36
2017-09-22T06:09:17.087Z,5.43
2017-09-22T06:11:44.608Z,5.88
2017-09-22T06:14:12.149Z,6.40
2017-09-22T06:16:39.655Z,6.48
2017-09-22T06:19:07.207Z,6.65
2017-09-22T06:21:34.707Z,6.65
2017-09-22T06:24:02.218Z,7.47
2017-09-22T06:26:29.720Z,7.66
2017-09-22T06:28:57.350Z,8.32
2017-09-22T06:31:24.851Z,8.69
2017-09-22T06:33:52.368Z,8.96
2017-09-22T06:36:19.892Z,8.95
2017-09-22T06:38:47.400Z,9.11
2017-09-22T06:41:14.923Z,9.22
2017-09-22T06:43:42.417Z,9.46
2017-09-22T06:46:09.953Z,9.50
2017-09-22T06:48:37.454Z,8.93
2017-09-22T06:51:04.974Z,8.60
2017-09-22T06:53:32.481Z,8.61
2017-09-22T06:56:00.008Z,9.10
2017-09-22T06:58:27.532Z,9.52
2017-09-22T07:00:55.058Z,9.74
2017-09-22T07:03:22.554Z,9.86
2017-09-22T07:05:50.100Z,9.97
2017-09-22T07:08:17.608Z,9.61
2017-09-22T07:10:45.121Z,9.74
2017-09-22T07:13:12.634Z,10.58
2017-09-22T07:15:40.147Z,9.79
2017-09-22T07:18:07.651Z,9.96
2017-09-22T07:20:35.171Z,10.23
2017-09-22T07:23:03.470Z,10.51
2017-09-22T07:25:31.032Z,10.49
2017-09-22T07:27:58.552Z,10.69
2017-09-22T07:30:26.065Z,10.85
2017-09-22T07:32:53.579Z,11.41
2017-09-22T07:35:21.107Z,12.33
2017-09-22T07:37:48.655Z,11.20
2017-09-22T07:40:16.174Z,12.13
2017-09-22T07:42:44.602Z,11.99
2017-09-22T07:45:12.123Z,12.33
2017-09-22T07:47:39.638Z,12.65
2017-09-22T07:50:07.144Z,12.62
2017-09-22T07:52:34.654Z,13.08
2017-09-22T07:55:02.212Z,13.62
2017-09-22T07:57:36.889Z,12.65
2017-09-22T08:00:04.420Z,12.71
2017-09-22T08:02:32.127Z,13.19
2017-09-22T08:04:59.640Z,13.46
2017-09-22T08:07:27.160Z,14.43
2017-09-22T08:09:54.682Z,16.47
2017-09-22T08:12:22.191Z,17.23
2017-09-22T08:14:49.807Z,18.36
2017-09-22T08:17:17.326Z,18.50
2017-09-22T08:19:45.324Z,22.01
2017-09-22T08:22:12.828Z,21.29
2017-09-22T08:24:40.353Z,21.92
2017-09-22T08:27:07.866Z,21.80
2017-09-22T08:29:35.383Z,23.08
2017-09-22T08:32:02.895Z,24.19
2017-09-22T08:34:30.408Z,23.11
2017-09-22T08:36:57.996Z,22.94
2017-09-22T08:39:28.255Z,24.45
2017-09-22T08:41:55.803Z,24.80
2017-09-22T08:44:23.319Z,24.69
2017-09-22T08:46:50.829Z,26.60
2017-09-22T08:49:18.406Z,28.28
2017-09-22T08:51:45.970Z,25.45
2017-09-22T08:54:13.491Z,23.23
2017-09-22T08:56:40.999Z,24.57
2017-09-22T08:59:08.518Z,27.26
2017-09-22T09:01:36.016Z,26.55
2017-09-22T09:04:03.523Z,27.18
2017-09-22T09:06:32.205Z,25.60
2017-09-22T09:08:59.723Z,24.40
2017-09-22T09:11:27.240Z,25.49
2017-09-22T09:13:54.764Z,24.79
2017-09-22T09:16:22.263Z,23.62
2017-09-22T09:18:49.816Z,25.37
2017-09-22T09:21:17.322Z,25.06
2017-09-22T09:23:44.835Z,26.52
2017-09-22T09:26:12.335Z,23.68
2017-09-22T09:28:39.851Z,24.40
2017-09-22T09:31:08.123Z,26.25
2017-09-22T09:33:35.646Z,27.53
2017-09-22T09:36:03.838Z,28.79
2017-09-22T09:38:31.380Z,30.23
2017-09-22T09:40:58.882Z,27.78
2017-09-22T09:43:26.394Z,26.85
2017-09-22T09:45:53.908Z,27.96
2017-09-22T09:48:21.422Z,24.62
2017-09-22T09:50:48.939Z,28.04
2017-09-22T09:53:16.443Z,27.78
2017-09-22T09:55:43.965Z,27.62
2017-09-22T09:58:11.470Z,26.03
2017-09-22T10:00:40.054Z,26.28
2017-09-22T10:03:07.578Z,28.81
2017-09-22T10:05:35.096Z,26.20
2017-09-22T10:08:02.607Z,29.22
2017-09-22T10:10:30.122Z,28.89
2017-09-22T10:12:57.646Z,29.90
2017-09-22T10:15:25.156Z,31.67
2017-09-22T10:17:52.692Z,34.19
2017-09-22T10:20:20.211Z,29.50
2017-09-22T10:22:47.791Z,29.22
2017-09-22T10:25:15.292Z,32.28
2017-09-22T10:27:42.809Z,33.06
2017-09-22T10:30:10.323Z,33.32
2017-09-22T10:32:37.843Z,33.87
2017-09-22T10:35:05.347Z,34.09
2017-09-22T10:37:32.874Z,33.16
2017-09-22T10:40:00.379Z,30.49
2017-09-22T10:42:27.935Z,32.83
2017-09-22T10:44:55.453Z,34.48
2017-09-22T10:47:23.019Z,33.69
2017-09-22T10:49:50.523Z,34.33
2017-09-22T10:52:18.050Z,36.33
2017-09-22T10:54:45.596Z,34.39
2017-09-22T10:57:13.115Z,34.72
2017-09-22T10:59:40.886Z,32.29
2017-09-22T11:02:08.424Z,29.52
2017-09-22T11:04:35.948Z,31.13
2017-09-22T11:07:03.458Z,29.98
2017-09-22T11:09:30.986Z,30.07
2017-09-22T11:11:58.491Z,31.34
2017-09-22T11:14:26.009Z,30.98
2017-09-22T11:16:53.515Z,30.81
2017-09-22T11:19:21.047Z,29.26
2017-09-22T11:21:48.574Z,29.64
2017-09-22T11:24:16.103Z,28.51
2017-09-22T11:26:43.651Z,29.80
2017-09-22T11:29:11.177Z,28.40
2017-09-22T11:31:38.153Z,28.99
2017-09-22T11:34:05.242Z,33.28
2017-09-22T11:36:32.767Z,32.81
2017-09-22T11:39:00.280Z,34.69
2017-09-22T11:41:27.782Z,30.77
2017-09-22T11:43:55.284Z,30.74
2017-09-22T11:46:22.812Z,33.46
2017-09-22T11:48:50.898Z,27.38
2017-09-22T11:51:18.449Z,27.58
2017-09-22T11:53:46.001Z,32.08
2017-09-22T11:56:13.553Z,32.76
2017-09-22T11:58:41.084Z,31.25
2017-09-22T12:01:08.623Z,31.10
2017-09-22T12:03:36.144Z,29.85
2017-09-22T12:06:03.663Z,30.60
2017-09-22T12:08:31.169Z,31.79
2017-09-22T12:10:58.674Z,33.45
2017-09-22T12:13:26.197Z,35.75
2017-09-22T12:15:53.729Z,36.37
2017-09-22T12:18:21.256Z,32.99
2017-09-22T12:20:48.763Z,31.93
2017-09-22T12:23:16.298Z,33.40
2017-09-22T12:25:43.819Z,34.95
2017-09-22T12:28:11.335Z,35.43
2017-09-22T12:30:39.431Z,31.75
2017-09-22T12:33:07.535Z,32.66
2017-09-22T12:35:35.108Z,32.96
2017-09-22T12:38:02.707Z,32.00
2017-09-22T12:40:30.227Z,31.07
2017-09-22T12:42:57.828Z,32.68
2017-09-22T12:45:25.351Z,29.44
2017-09-22T12:47:52.859Z,31.89
2017-09-22T12:50:20.362Z,32.00
2017-09-22T12:55:24.716Z,29.25
2017-09-22T12:57:52.219Z,31.29
2017-09-22T13:00:19.758Z,32.12
2017-09-22T13:02:47.276Z,32.13
2017-09-22T13:05:14.866Z,33.10
2017-09-22T13:07:42.372Z,32.61
2017-09-22T13:10:09.908Z,33.98
2017-09-22T13:12:37.486Z,32.90
2017-09-22T13:15:05.047Z,34.07
2017-09-22T13:17:32.560Z,34.36
2017-09-22T13:20:00.100Z,33.98
2017-09-22T13:22:27.613Z,34.69
2017-09-22T13:24:55.152Z,33.59
2017-09-22T13:27:22.700Z,33.25
2017-09-22T13:29:51.898Z,32.62
2017-09-22T13:32:19.445Z,29.87
2017-09-22T13:34:46.973Z,29.61
2017-09-22T13:37:14.638Z,29.44
2017-09-22T13:39:42.177Z,30.27
2017-09-22T13:42:11.287Z,31.96
2017-09-22T13:44:38.785Z,30.91
2017-09-22T13:47:11.756Z,31.34
2017-09-22T13:49:39.275Z,31.21
2017-09-22T13:52:06.809Z,30.67
2017-09-22T13:54:34.344Z,30.24
2017-09-22T13:57:01.851Z,29.73
2017-09-22T13:59:30.381Z,30.14
2017-09-22T14:01:57.984Z,31.18
2017-09-22T14:04:25.490Z,30.48
2017-09-22T14:06:53.019Z,29.44
2017-09-22T14:09:20.568Z,28.67
2017-09-22T14:11:48.078Z,28.37
2017-09-22T14:14:15.584Z,27.75
2017-09-22T14:16:43.110Z,27.26
2017-09-22T14:19:10.722Z,26.75
2017-09-22T14:21:38.267Z,25.29
2017-09-22T14:24:08.002Z,24.78
2017-09-22T14:26:35.630Z,24.24
2017-09-22T14:29:03.159Z,23.93
2017-09-22T14:31:30.697Z,23.85
2017-09-22T14:33:58.261Z,23.38
2017-09-22T14:36:25.766Z,23.36
2017-09-22T14:38:53.302Z,23.25
2017-09-22T14:41:20.820Z,22.84
2017-09-22T14:43:48.332Z,22.74
2017-09-22T14:46:15.838Z,22.34
2017-09-22T14:48:43.371Z,22.25
2017-09-22T14:51:10.877Z,22.01
2017-09-22T14:53:38.392Z,22.01
2017-09-22T14:56:05.921Z,22.10
2017-09-22T14:58:33.444Z,21.94
2017-09-22T15:01:00.968Z,22.02
2017-09-22T15:03:28.500Z,22.11
2017-09-22T15:05:56.011Z,22.07
2017-09-22T15:08:23.560Z,21.94
2017-09-22T15:10:51.090Z,21.79
2017-09-22T15:13:18.655Z,21.48
2017-09-22T15:15:46.238Z,21.29
2017-09-22T15:18:13.756Z,21.33
2017-09-22T15:20:41.291Z,21.26
2017-09-22T15:23:08.799Z,21.18
2017-09-22T15:25:36.305Z,21.26
2017-09-22T15:28:03.832Z,21.33
2017-09-22T15:30:31.344Z,21.36
2017-09-22T15:32:58.864Z,21.34
2017-09-22T15:35:26.367Z,21.10
2017-09-22T15:37:53.874Z,21.34
2017-09-22T15:40:21.384Z,21.32
2017-09-22T15:42:48.912Z,21.31
2017-09-22T15:45:16.508Z,21.19
2017-09-22T15:47:44.026Z,21.18
2017-09-22T15:50:11.549Z,21.27
2017-09-22T15:52:39.069Z,21.25
2017-09-22T15:55:06.598Z,21.25
2017-09-22T15:57:34.148Z,21.23
2017-09-22T16:00:01.676Z,21.22
2017-09-22T16:02:29.220Z,21.05
2017-09-22T16:04:56.759Z,21.15
2017-09-22T16:07:24.266Z,20.68
2017-09-22T16:09:51.830Z,20.63
2017-09-22T16:12:19.489Z,20.40
2017-09-22T16:14:47.868Z,20.53
2017-09-22T16:17:15.427Z,19.95
2017-09-22T16:19:43.022Z,19.73
2017-09-22T16:22:10.565Z,19.46
2017-09-22T16:24:38.350Z,19.21
2017-09-22T16:27:05.863Z,19.10
2017-09-22T16:29:33.404Z,18.74
2017-09-22T16:32:00.933Z,18.41
2017-09-22T16:34:28.482Z,18.09
2017-09-22T16:36:56.000Z,17.93
2017-09-22T16:39:23.512Z,17.80
2017-09-22T16:41:51.043Z,17.69
2017-09-22T16:44:18.568Z,17.68
2017-09-22T16:46:46.113Z,17.92
2017-09-22T16:49:13.634Z,17.85
2017-09-22T16:51:41.279Z,17.61
2017-09-22T16:54:08.816Z,17.64
2017-09-22T16:56:37.339Z,17.50
2017-09-22T16:59:04.877Z,16.99
2017-09-22T17:01:32.393Z,16.74
2017-09-22T17:03:59.908Z,16.48
2017-09-22T17:06:27.421Z,16.70
2017-09-22T17:08:54.948Z,16.62
2017-09-22T17:11:22.493Z,16.06
2017-09-22T17:13:50.018Z,15.59
2017-09-22T17:16:17.570Z,15.33
2017-09-22T17:18:45.107Z,15.53
2017-09-22T17:21:12.636Z,15.83
2017-09-22T17:23:40.161Z,15.70
2017-09-22T17:26:07.674Z,16.17
2017-09-22T17:28:35.207Z,15.77
2017-09-22T17:31:02.789Z,15.50
2017-09-22T17:33:30.316Z,15.39
2017-09-22T17:35:57.830Z,15.25
2017-09-22T17:38:25.357Z,15.39
2017-09-22T17:40:52.885Z,15.67
2017-09-22T17:43:20.421Z,15.93
2017-09-22T17:45:47.916Z,15.35
2017-09-22T17:48:15.427Z,14.92
2017-09-22T17:50:42.965Z,15.29
2017-09-22T17:53:10.508Z,14.98
2017-09-22T17:55:38.075Z,15.00
2017-09-22T17:58:05.648Z,14.78
2017-09-22T18:00:33.155Z,14.74
2017-09-22T18:03:00.708Z,14.72
2017-09-22T18:05:28.246Z,14.80
2017-09-22T18:07:55.795Z,14.56
2017-09-22T18:10:23.343Z,14.58
2017-09-22T18:12:50.884Z,14.18
2017-09-22T18:15:18.390Z,14.11
2017-09-22T18:17:45.947Z,14.17
2017-09-22T18:20:13.511Z,13.93
2017-09-22T18:22:41.083Z,13.81
2017-09-22T18:25:08.600Z,13.88
2017-09-22T18:27:36.126Z,14.00
2017-09-22T18:30:03.641Z,13.96
2017-09-22T18:32:31.145Z,13.86
2017-09-22T18:34:58.654Z,13.55
2017-09-22T18:37:26.176Z,13.80
2017-09-22T18:39:53.688Z,13.76
2017-09-22T18:42:21.208Z,13.96
2017-09-22T18:44:48.766Z,13.82
2017-09-22T18:47:16.301Z,13.71
2017-09-22T18:49:43.827Z,13.76
2017-09-22T18:52:11.357Z,13.70
2017-09-22T18:54:38.900Z,13.34
2017-09-22T18:57:06.420Z,13.43
2017-09-22T18:59:33.956Z,13.25
2017-09-22T19:02:01.596Z,13.42
2017-09-22T19:04:29.276Z,13.23
2017-09-22T19:06:57.329Z,13.31
2017-09-22T19:09:24.904Z,13.63
2017-09-22T19:11:52.449Z,13.13
2017-09-22T19:14:20.028Z,13.09
2017-09-22T19:16:47.578Z,13.09
2017-09-22T19:19:15.094Z,13.12
2017-09-22T19:21:42.636Z,12.99
2017-09-22T19:24:10.186Z,12.71
2017-09-22T19:26:37.796Z,12.38
2017-09-22T19:29:05.325Z,12.26
2017-09-22T19:31:32.864Z,12.39
2017-09-22T19:34:00.393Z,12.60
2017-09-22T19:36:27.921Z,12.64
2017-09-22T19:38:55.434Z,12.38
2017-09-22T19:41:22.957Z,12.17
2017-09-22T19:43:50.556Z,12.12
2017-09-22T19:46:18.095Z,12.28
2017-09-22T19:48:45.634Z,12.07
2017-09-22T19:51:13.182Z,12.02
2017-09-22T19:53:42.361Z,12.57
2017-09-22T19:56:09.913Z,12.52
2017-09-22T19:58:37.450Z,12.48
2017-09-22T20:01:04.974Z,12.62
2017-09-22T20:03:32.479Z,12.57
2017-09-22T20:06:00.031Z,12.49
2017-09-22T20:08:27.573Z,12.25
2017-09-22T20:10:55.158Z,12.17
2017-09-22T20:13:22.725Z,12.30
2017-09-22T20:15:50.258Z,12.36
2017-09-22T20:18:17.834Z,12.42
2017-09-22T20:20:45.360Z,12.40
2017-09-22T20:23:12.943Z,12.36
2017-09-22T20:25:40.508Z,12.53
2017-09-22T20:28:08.067Z,12.78
2017-09-22T20:30:35.570Z,12.62
2017-09-22T20:33:03.104Z,12.36
2017-09-22T20:35:30.636Z,12.60
2017-09-22T20:37:58.179Z,12.45
2017-09-22T20:40:25.748Z,12.44
2017-09-22T20:42:53.276Z,12.35
2017-09-22T20:45:20.813Z,12.58
2017-09-22T20:47:48.339Z,12.28
2017-09-22T20:50:15.888Z,11.92
2017-09-22T20:52:43.419Z,12.13
2017-09-22T20:55:14.776Z,12.32
2017-09-22T20:57:43.143Z,12.25
2017-09-22T21:00:11.840Z,12.09
2017-09-22T21:02:39.374Z,11.98
2017-09-22T21:05:06.904Z,11.98
2017-09-22T21:07:34.517Z,12.16
2017-09-22T21:10:02.024Z,12.18
2017-09-22T21:12:29.568Z,12.11
2017-09-22T21:14:57.091Z,12.15
2017-09-22T21:17:25.591Z,11.95
2017-09-22T21:19:53.155Z,11.88
2017-09-22T21:22:20.696Z,11.62
2017-09-22T21:24:49.093Z,11.84
2017-09-22T21:27:16.633Z,11.54
2017-09-22T21:29:44.195Z,11.47
2017-09-22T21:32:11.741Z,11.19
2017-09-22T21:34:39.268Z,11.27
2017-09-22T21:37:06.869Z,11.59
2017-09-22T21:39:34.369Z,11.41
2017-09-22T21:42:01.879Z,11.18
2017-09-22T21:44:29.396Z,10.98
2017-09-22T21:46:56.919Z,11.03
2017-09-22T21:49:24.459Z,11.00
2017-09-22T21:51:51.992Z,10.87
2017-09-22T21:54:19.518Z,10.95
2017-09-22T21:56:47.201Z,10.96
2017-09-22T21:59:14.868Z,10.91
2017-09-22T22:01:42.441Z,10.71
2017-09-22T22:04:15.746Z,10.32
2017-09-22T22:06:48.932Z,10.33
2017-09-22T22:09:16.482Z,10.33
2017-09-22T22:11:44.056Z,10.24
2017-09-22T22:14:11.671Z,10.35
2017-09-22T22:16:39.223Z,10.63
2017-09-22T22:19:07.732Z,10.23
2017-09-22T22:21:35.317Z,10.30
2017-09-22T22:24:03.035Z,10.28
2017-09-22T22:26:30.574Z,10.40
2017-09-22T22:28:58.157Z,10.33
2017-09-22T22:31:25.854Z,10.22
2017-09-22T22:33:53.394Z,10.64
2017-09-22T22:36:26.880Z,10.20
2017-09-22T22:38:54.449Z,10.49
2017-09-22T22:41:22.007Z,10.38
2017-09-22T22:43:49.572Z,10.48
2017-09-22T22:46:17.114Z,10.39
2017-09-22T22:48:44.676Z,10.12
2017-09-22T22:51:12.237Z,9.94
2017-09-22T22:53:39.812Z,9.85
2017-09-22T22:56:07.463Z,10.04
2017-09-22T22:58:35.049Z,10.33
2017-09-22T23:01:02.609Z,10.06
2017-09-22T23:03:30.261Z,10.15
2017-09-22T23:05:57.826Z,10.07
2017-09-22T23:08:25.381Z,10.27
2017-09-22T23:10:52.933Z,10.15
2017-09-22T23:13:20.489Z,10.08
2017-09-22T23:15:48.157Z,10.06
2017-09-22T23:18:15.705Z,9.89
2017-09-22T23:20:43.278Z,9.75
2017-09-22T23:23:10.901Z,9.78
2017-09-22T23:25:38.497Z,9.63
2017-09-22T23:28:06.054Z,9.56
2017-09-22T23:30:33.606Z,9.70
2017-09-22T23:33:01.171Z,9.72
2017-09-22T23:35:28.739Z,9.49
2017-09-22T23:37:56.299Z,9.37
2017-09-22T23:40:23.867Z,9.35
2017-09-22T23:42:51.426Z,9.38
2017-09-22T23:45:18.988Z,9.50
2017-09-22T23:47:46.548Z,9.32
2017-09-22T23:50:14.090Z,9.40
2017-09-22T23:52:41.711Z,9.16
2017-09-22T23:55:09.253Z,8.93
2017-09-22T23:57:36.812Z,8.91
